sensor_id;sensor_type;location;lat;lon;timestamp;pressure;altitude;pressure_sealevel;temperature
15544;BMP180;7873;52.230;12.856;2022-07-21T00:01:08;100696.34;;;28.04
15544;BMP180;7873;52.230;12.856;2022-07-21T00:03:34;100686.13;;;28.06
15544;BMP180;7873;52.230;12.856;2022-07-21T00:06:02;100687.38;;;28.04
15544;BMP180;7873;52.230;12.856;2022-07-21T00:08:30;100686.13;;;28.06
15544;BMP180;7873;52.230;12.856;2022-07-21T00:10:57;100685.28;;;28.06
15544;BMP180;7873;52.230;12.856;2022-07-21T00:13:24;100675.75;;;28.03
15544;BMP180;7873;52.230;12.856;2022-07-21T00:15:51;100682.81;;;28.04
15544;BMP180;7873;52.230;12.856;2022-07-21T00:18:18;100682.19;;;28.02
15544;BMP180;7873;52.230;12.856;2022-07-21T00:20:45;100681.53;;;28.07
15544;BMP180;7873;52.230;12.856;2022-07-21T00:23:11;100677.59;;;28.03
15544;BMP180;7873;52.230;12.856;2022-07-21T00:25:40;100678.88;;;28.00
15544;BMP180;7873;52.230;12.856;2022-07-21T00:28:06;100679.25;;;28.04
15544;BMP180;7873;52.230;12.856;2022-07-21T00:30:33;100681.34;;;28.02
15544;BMP180;7873;52.230;12.856;2022-07-21T00:33:00;100680.09;;;28.04
15544;BMP180;7873;52.230;12.856;2022-07-21T00:35:27;100678.63;;;28.02
15544;BMP180;7873;52.230;12.856;2022-07-21T00:37:53;100673.88;;;27.97
15544;BMP180;7873;52.230;12.856;2022-07-21T00:40:20;100681.16;;;27.97
15544;BMP180;7873;52.230;12.856;2022-07-21T00:42:48;100677.81;;;28.01
15544;BMP180;7873;52.230;12.856;2022-07-21T00:45:15;100677.22;;;27.99
15544;BMP180;7873;52.230;12.856;2022-07-21T00:47:42;100668.84;;;28.01
15544;BMP180;7873;52.230;12.856;2022-07-21T00:50:10;100662.19;;;28.03
15544;BMP180;7873;52.230;12.856;2022-07-21T00:52:38;100663.66;;;27.99
15544;BMP180;7873;52.230;12.856;2022-07-21T00:55:06;100658.25;;;27.99
15544;BMP180;7873;52.230;12.856;2022-07-21T00:57:35;100658.25;;;27.99
15544;BMP180;7873;52.230;12.856;2022-07-21T01:00:03;100654.50;;;27.94
15544;BMP180;7873;52.230;12.856;2022-07-21T01:02:30;100661.59;;;27.95
15544;BMP180;7873;52.230;12.856;2022-07-21T01:05:01;100667.44;;;27.92
15544;BMP180;7873;52.230;12.856;2022-07-21T01:07:27;100659.13;;;27.87
15544;BMP180;7873;52.230;12.856;2022-07-21T01:09:55;100660.16;;;27.79
15544;BMP180;7873;52.230;12.856;2022-07-21T01:12:22;100654.09;;;27.84
15544;BMP180;7873;52.230;12.856;2022-07-21T01:14:49;100646.41;;;27.87
15544;BMP180;7873;52.230;12.856;2022-07-21T01:17:17;100641.59;;;27.83
15544;BMP180;7873;52.230;12.856;2022-07-21T01:19:44;100654.50;;;27.81
15544;BMP180;7873;52.230;12.856;2022-07-21T01:22:12;100652.22;;;27.84
15544;BMP180;7873;52.230;12.856;2022-07-21T01:24:39;100648.69;;;27.84
15544;BMP180;7873;52.230;12.856;2022-07-21T01:27:06;100642.44;;;27.83
15544;BMP180;7873;52.230;12.856;2022-07-21T01:29:32;100642.66;;;27.82
15544;BMP180;7873;52.230;12.856;2022-07-21T01:31:59;100639.13;;;27.75
15544;BMP180;7873;52.230;12.856;2022-07-21T01:34:26;100648.28;;;27.80
15544;BMP180;7873;52.230;12.856;2022-07-21T01:36:52;100653.09;;;27.78
15544;BMP180;7873;52.230;12.856;2022-07-21T01:39:20;100647.25;;;27.81
15544;BMP180;7873;52.230;12.856;2022-07-21T01:42:05;100654.31;;;27.89
15544;BMP180;7873;52.230;12.856;2022-07-21T01:44:31;100653.47;;;27.88
15544;BMP180;7873;52.230;12.856;2022-07-21T01:46:58;100656.78;;;27.84
15544;BMP180;7873;52.230;12.856;2022-07-21T01:49:25;100656.22;;;27.75
15544;BMP180;7873;52.230;12.856;2022-07-21T01:51:51;100653.69;;;27.80
15544;BMP180;7873;52.230;12.856;2022-07-21T01:54:19;100658.06;;;27.75
15544;BMP180;7873;52.230;12.856;2022-07-21T01:56:47;100657.44;;;27.79
15544;BMP180;7873;52.230;12.856;2022-07-21T01:59:13;100659.72;;;27.76
15544;BMP180;7873;52.230;12.856;2022-07-21T02:01:40;100648.91;;;27.76
15544;BMP180;7873;52.230;12.856;2022-07-21T02:04:06;100640.59;;;27.71
15544;BMP180;7873;52.230;12.856;2022-07-21T02:06:33;100646.19;;;27.76
15544;BMP180;7873;52.230;12.856;2022-07-21T02:09:00;100645.59;;;27.74
15544;BMP180;7873;52.230;12.856;2022-07-21T02:11:27;100633.53;;;27.76
15544;BMP180;7873;52.230;12.856;2022-07-21T02:13:55;100629.16;;;27.75
15544;BMP180;7873;52.230;12.856;2022-07-21T02:16:22;100631.84;;;27.75
15544;BMP180;7873;52.230;12.856;2022-07-21T02:18:49;100627.50;;;27.74
15544;BMP180;7873;52.230;12.856;2022-07-21T02:21:16;100627.06;;;27.77
15544;BMP180;7873;52.230;12.856;2022-07-21T02:23:43;100630.78;;;27.83
15544;BMP180;7873;52.230;12.856;2022-07-21T02:26:09;100627.44;;;27.81
15544;BMP180;7873;52.230;12.856;2022-07-21T02:28:36;100633.72;;;27.75
15544;BMP180;7873;52.230;12.856;2022-07-21T02:31:04;100634.13;;;27.78
15544;BMP180;7873;52.230;12.856;2022-07-21T02:33:31;100634.13;;;27.72
15544;BMP180;7873;52.230;12.856;2022-07-21T02:35:58;100644.94;;;27.65
15544;BMP180;7873;52.230;12.856;2022-07-21T02:38:25;100643.06;;;27.66
15544;BMP180;7873;52.230;12.856;2022-07-21T02:40:52;100638.69;;;27.65
15544;BMP180;7873;52.230;12.856;2022-07-21T02:43:18;100639.75;;;27.70
15544;BMP180;7873;52.230;12.856;2022-07-21T02:45:45;100639.34;;;27.73
15544;BMP180;7873;52.230;12.856;2022-07-21T02:48:13;100640.78;;;27.76
15544;BMP180;7873;52.230;12.856;2022-07-21T02:50:42;100648.88;;;27.69
15544;BMP180;7873;52.230;12.856;2022-07-21T02:53:11;100654.09;;;27.64
15544;BMP180;7873;52.230;12.856;2022-07-21T02:55:38;100639.94;;;27.62
15544;BMP180;7873;52.230;12.856;2022-07-21T02:58:06;100653.25;;;27.57
15544;BMP180;7873;52.230;12.856;2022-07-21T03:00:34;100659.09;;;27.54
15544;BMP180;7873;52.230;12.856;2022-07-21T03:03:01;100667.41;;;27.53
15544;BMP180;7873;52.230;12.856;2022-07-21T03:05:31;100670.53;;;27.50
15544;BMP180;7873;52.230;12.856;2022-07-21T03:07:58;100686.75;;;27.50
15544;BMP180;7873;52.230;12.856;2022-07-21T03:10:24;100686.56;;;27.51
15544;BMP180;7873;52.230;12.856;2022-07-21T03:12:51;100684.91;;;27.50
15544;BMP180;7873;52.230;12.856;2022-07-21T03:15:18;100680.72;;;27.41
15544;BMP180;7873;52.230;12.856;2022-07-21T03:17:45;100675.31;;;27.41
15544;BMP180;7873;52.230;12.856;2022-07-21T03:20:12;100675.75;;;27.45
15544;BMP180;7873;52.230;12.856;2022-07-21T03:22:41;100676.13;;;27.29
15544;BMP180;7873;52.230;12.856;2022-07-21T03:25:08;100684.25;;;27.29
15544;BMP180;7873;52.230;12.856;2022-07-21T03:27:35;100691.94;;;27.19
15544;BMP180;7873;52.230;12.856;2022-07-21T03:30:04;100691.06;;;27.12
15544;BMP180;7873;52.230;12.856;2022-07-21T03:32:32;100710.00;;;27.12
15544;BMP180;7873;52.230;12.856;2022-07-21T03:34:58;100708.06;;;27.06
15544;BMP180;7873;52.230;12.856;2022-07-21T03:37:25;100713.69;;;27.05
15544;BMP180;7873;52.230;12.856;2022-07-21T03:39:54;100724.06;;;26.95
15544;BMP180;7873;52.230;12.856;2022-07-21T03:42:20;100730.06;;;26.84
15544;BMP180;7873;52.230;12.856;2022-07-21T03:44:47;100735.06;;;26.87
15544;BMP180;7873;52.230;12.856;2022-07-21T03:47:14;100740.47;;;26.87
15544;BMP180;7873;52.230;12.856;2022-07-21T03:49:41;100745.22;;;26.85
15544;BMP180;7873;52.230;12.856;2022-07-21T03:52:08;100741.72;;;26.91
15544;BMP180;7873;52.230;12.856;2022-07-21T03:54:34;100754.81;;;26.94
15544;BMP180;7873;52.230;12.856;2022-07-21T03:57:02;100760.66;;;26.97
15544;BMP180;7873;52.230;12.856;2022-07-21T03:59:29;100766.13;;;27.10
15544;BMP180;7873;52.230;12.856;2022-07-21T04:01:56;100757.88;;;27.18
15544;BMP180;7873;52.230;12.856;2022-07-21T04:04:22;100759.53;;;27.26
15544;BMP180;7873;52.230;12.856;2022-07-21T04:06:49;100761.78;;;27.16
15544;BMP180;7873;52.230;12.856;2022-07-21T04:09:16;100776.25;;;27.02
15544;BMP180;7873;52.230;12.856;2022-07-21T04:11:43;100771.19;;;26.79
15544;BMP180;7873;52.230;12.856;2022-07-21T04:14:11;100783.81;;;26.72
15544;BMP180;7873;52.230;12.856;2022-07-21T04:16:38;100792.13;;;26.71
15544;BMP180;7873;52.230;12.856;2022-07-21T04:19:05;100791.13;;;26.78
15544;BMP180;7873;52.230;12.856;2022-07-21T04:21:31;100789.28;;;26.85
15544;BMP180;7873;52.230;12.856;2022-07-21T04:23:58;100790.81;;;26.94
15544;BMP180;7873;52.230;12.856;2022-07-21T04:26:25;100791.31;;;27.11
15544;BMP180;7873;52.230;12.856;2022-07-21T04:28:53;100787.84;;;27.30
15544;BMP180;7873;52.230;12.856;2022-07-21T04:31:21;100802.84;;;27.38
15544;BMP180;7873;52.230;12.856;2022-07-21T04:33:48;100802.66;;;27.46
15544;BMP180;7873;52.230;12.856;2022-07-21T04:36:14;100804.72;;;27.44
15544;BMP180;7873;52.230;12.856;2022-07-21T04:38:41;100815.75;;;27.49
15544;BMP180;7873;52.230;12.856;2022-07-21T04:41:08;100823.66;;;27.44
15544;BMP180;7873;52.230;12.856;2022-07-21T04:43:34;100837.97;;;27.32
15544;BMP180;7873;52.230;12.856;2022-07-21T04:46:01;100839.78;;;27.19
15544;BMP180;7873;52.230;12.856;2022-07-21T04:48:29;100851.47;;;27.26
15544;BMP180;7873;52.230;12.856;2022-07-21T04:50:56;100854.56;;;27.23
15544;BMP180;7873;52.230;12.856;2022-07-21T04:53:22;100848.38;;;27.29
15544;BMP180;7873;52.230;12.856;2022-07-21T04:55:49;100865.66;;;27.40
15544;BMP180;7873;52.230;12.856;2022-07-21T04:58:16;100861.75;;;27.49
15544;BMP180;7873;52.230;12.856;2022-07-21T05:00:43;100870.94;;;27.55
15544;BMP180;7873;52.230;12.856;2022-07-21T05:03:09;100872.75;;;27.41
15544;BMP180;7873;52.230;12.856;2022-07-21T05:05:40;100874.97;;;27.25
15544;BMP180;7873;52.230;12.856;2022-07-21T05:08:07;100871.47;;;26.97
15544;BMP180;7873;52.230;12.856;2022-07-21T05:10:33;100880.81;;;26.95
15544;BMP180;7873;52.230;12.856;2022-07-21T05:13:00;100876.25;;;26.95
15544;BMP180;7873;52.230;12.856;2022-07-21T05:15:27;100883.31;;;26.96
15544;BMP180;7873;52.230;12.856;2022-07-21T05:17:53;100889.53;;;26.63
15544;BMP180;7873;52.230;12.856;2022-07-21T05:20:20;100894.50;;;26.59
15544;BMP180;7873;52.230;12.856;2022-07-21T05:22:48;100896.16;;;26.60
15544;BMP180;7873;52.230;12.856;2022-07-21T05:25:15;100901.63;;;26.46
15544;BMP180;7873;52.230;12.856;2022-07-21T05:27:42;100900.09;;;26.58
15544;BMP180;7873;52.230;12.856;2022-07-21T05:30:09;100891.91;;;26.72
15544;BMP180;7873;52.230;12.856;2022-07-21T05:32:36;100899.03;;;26.86
15544;BMP180;7873;52.230;12.856;2022-07-21T05:35:04;100895.41;;;27.00
15544;BMP180;7873;52.230;12.856;2022-07-21T05:37:36;100884.25;;;27.10
15544;BMP180;7873;52.230;12.856;2022-07-21T05:40:05;100870.78;;;27.16
15544;BMP180;7873;52.230;12.856;2022-07-21T05:42:32;100874.25;;;27.10
15544;BMP180;7873;52.230;12.856;2022-07-21T05:44:59;100889.81;;;27.08
15544;BMP180;7873;52.230;12.856;2022-07-21T05:47:25;100878.19;;;27.08
15544;BMP180;7873;52.230;12.856;2022-07-21T05:49:52;100871.53;;;27.04
15544;BMP180;7873;52.230;12.856;2022-07-21T05:52:19;100874.09;;;27.12
15544;BMP180;7873;52.230;12.856;2022-07-21T05:54:45;100886.69;;;27.05
15544;BMP180;7873;52.230;12.856;2022-07-21T05:57:13;100877.75;;;27.04
15544;BMP180;7873;52.230;12.856;2022-07-21T05:59:40;100875.75;;;27.13
15544;BMP180;7873;52.230;12.856;2022-07-21T06:02:07;100871.19;;;27.20
15544;BMP180;7873;52.230;12.856;2022-07-21T06:04:34;100876.22;;;27.29
15544;BMP180;7873;52.230;12.856;2022-07-21T06:07:00;100884.16;;;27.31
15544;BMP180;7873;52.230;12.856;2022-07-21T06:09:27;100892.50;;;27.36
15544;BMP180;7873;52.230;12.856;2022-07-21T06:11:54;100887.69;;;27.31
15544;BMP180;7873;52.230;12.856;2022-07-21T06:14:22;100888.31;;;27.33
15544;BMP180;7873;52.230;12.856;2022-07-21T06:16:49;100895.59;;;27.33
15544;BMP180;7873;52.230;12.856;2022-07-21T06:19:16;100890.84;;;27.35
15544;BMP180;7873;52.230;12.856;2022-07-21T06:21:43;100888.13;;;27.35
15544;BMP180;7873;52.230;12.856;2022-07-21T06:24:10;100881.47;;;27.37
15544;BMP180;7873;52.230;12.856;2022-07-21T06:26:37;100902.28;;;27.37
15544;BMP180;7873;52.230;12.856;2022-07-21T06:29:04;100903.75;;;27.39
15544;BMP180;7873;52.230;12.856;2022-07-21T06:31:33;100909.34;;;27.38
15544;BMP180;7873;52.230;12.856;2022-07-21T06:33:59;100908.94;;;27.40
15544;BMP180;7873;52.230;12.856;2022-07-21T06:36:26;100909.34;;;27.38
15544;BMP180;7873;52.230;12.856;2022-07-21T06:38:53;100917.47;;;27.38
15544;BMP180;7873;52.230;12.856;2022-07-21T06:41:19;100922.88;;;27.38
15544;BMP180;7873;52.230;12.856;2022-07-21T06:43:46;100925.19;;;27.40
15544;BMP180;7873;52.230;12.856;2022-07-21T06:46:13;100918.69;;;27.35
15544;BMP180;7873;52.230;12.856;2022-07-21T06:48:40;100910.59;;;27.35
15544;BMP180;7873;52.230;12.856;2022-07-21T06:51:07;100917.66;;;27.36
15544;BMP180;7873;52.230;12.856;2022-07-21T06:53:34;100916.44;;;27.38
15544;BMP180;7873;52.230;12.856;2022-07-21T06:56:00;100922.03;;;27.37
15544;BMP180;7873;52.230;12.856;2022-07-21T06:58:27;100928.91;;;27.39
15544;BMP180;7873;52.230;12.856;2022-07-21T07:00:54;100936.81;;;27.35
15544;BMP180;7873;52.230;12.856;2022-07-21T07:03:21;100958.63;;;27.33
15544;BMP180;7873;52.230;12.856;2022-07-21T07:05:49;100957.44;;;27.42
15544;BMP180;7873;52.230;12.856;2022-07-21T07:08:16;100958.50;;;27.47
15544;BMP180;7873;52.230;12.856;2022-07-21T07:10:44;100958.84;;;27.38
15544;BMP180;7873;52.230;12.856;2022-07-21T07:13:12;100953.66;;;27.37
15544;BMP180;7873;52.230;12.856;2022-07-21T07:15:40;100944.50;;;27.38
15544;BMP180;7873;52.230;12.856;2022-07-21T07:18:07;100950.31;;;27.35
15544;BMP180;7873;52.230;12.856;2022-07-21T07:20:34;100958.28;;;27.42
15544;BMP180;7873;52.230;12.856;2022-07-21T07:23:02;100962.00;;;27.41
15544;BMP180;7873;52.230;12.856;2022-07-21T07:25:28;100961.56;;;27.38
15544;BMP180;7873;52.230;12.856;2022-07-21T07:27:55;100972.81;;;27.41
15544;BMP180;7873;52.230;12.856;2022-07-21T07:30:23;100990.94;;;27.47
15544;BMP180;7873;52.230;12.856;2022-07-21T07:32:49;100996.53;;;27.39
15544;BMP180;7873;52.230;12.856;2022-07-21T07:35:16;100993.03;;;27.45
15544;BMP180;7873;52.230;12.856;2022-07-21T07:37:45;100959.53;;;27.46
15544;BMP180;7873;52.230;12.856;2022-07-21T07:40:15;100971.25;;;27.53
15544;BMP180;7873;52.230;12.856;2022-07-21T07:42:43;100992.88;;;27.53
15544;BMP180;7873;52.230;12.856;2022-07-21T07:45:11;100982.06;;;27.53
15544;BMP180;7873;52.230;12.856;2022-07-21T07:47:38;100982.25;;;27.52
15544;BMP180;7873;52.230;12.856;2022-07-21T07:50:07;100975.34;;;27.49
15544;BMP180;7873;52.230;12.856;2022-07-21T07:52:35;100973.91;;;27.47
15544;BMP180;7873;52.230;12.856;2022-07-21T07:55:02;100981.66;;;27.56
15544;BMP180;7873;52.230;12.856;2022-07-21T07:57:34;100981.84;;;27.55
15544;BMP180;7873;52.230;12.856;2022-07-21T08:00:03;100983.09;;;27.59
15544;BMP180;7873;52.230;12.856;2022-07-21T08:02:30;100990.84;;;27.62
15544;BMP180;7873;52.230;12.856;2022-07-21T08:04:56;100993.31;;;27.57
15544;BMP180;7873;52.230;12.856;2022-07-21T08:07:23;100992.47;;;27.56
15544;BMP180;7873;52.230;12.856;2022-07-21T08:09:50;100980.81;;;27.56
15544;BMP180;7873;52.230;12.856;2022-07-21T08:12:16;100977.91;;;27.57
15544;BMP180;7873;52.230;12.856;2022-07-21T08:14:44;100969.56;;;27.59
15544;BMP180;7873;52.230;12.856;2022-07-21T08:17:11;100961.09;;;27.62
15544;BMP180;7873;52.230;12.856;2022-07-21T08:19:38;100972.72;;;27.62
15544;BMP180;7873;52.230;12.856;2022-07-21T08:22:04;100973.78;;;27.61
15544;BMP180;7873;52.230;12.856;2022-07-21T08:24:31;100979.38;;;27.60
15544;BMP180;7873;52.230;12.856;2022-07-21T08:26:58;100986.03;;;27.57
15544;BMP180;7873;52.230;12.856;2022-07-21T08:29:24;100990.59;;;27.57
15544;BMP180;7873;52.230;12.856;2022-07-21T08:31:52;100991.03;;;27.60
15544;BMP180;7873;52.230;12.856;2022-07-21T08:34:19;100985.63;;;27.60
15544;BMP180;7873;52.230;12.856;2022-07-21T08:36:46;100982.72;;;27.62
15544;BMP180;7873;52.230;12.856;2022-07-21T08:39:13;100982.72;;;27.62
15544;BMP180;7873;52.230;12.856;2022-07-21T08:41:40;100991.03;;;27.60
15544;BMP180;7873;52.230;12.856;2022-07-21T08:44:07;100992.72;;;27.61
15544;BMP180;7873;52.230;12.856;2022-07-21T08:46:37;100998.31;;;27.60
15544;BMP180;7873;52.230;12.856;2022-07-21T08:49:05;100993.97;;;27.65
15544;BMP180;7873;52.230;12.856;2022-07-21T08:51:33;100990.03;;;27.68
15544;BMP180;7873;52.230;12.856;2022-07-21T08:54:00;100994.88;;;27.79
15544;BMP180;7873;52.230;12.856;2022-07-21T08:56:27;100995.22;;;27.69
15544;BMP180;7873;52.230;12.856;2022-07-21T08:58:54;100997.78;;;27.71
15544;BMP180;7873;52.230;12.856;2022-07-21T09:01:21;100980.53;;;27.78
15544;BMP180;7873;52.230;12.856;2022-07-21T09:03:49;100985.31;;;27.76
15544;BMP180;7873;52.230;12.856;2022-07-21T09:06:17;100989.25;;;27.74
15544;BMP180;7873;52.230;12.856;2022-07-21T09:08:47;100991.16;;;27.80
15544;BMP180;7873;52.230;12.856;2022-07-21T09:11:18;100991.78;;;27.82
15544;BMP180;7873;52.230;12.856;2022-07-21T09:13:46;100998.44;;;27.79
15544;BMP180;7873;52.230;12.856;2022-07-21T09:16:32;100991.41;;;27.85
15544;BMP180;7873;52.230;12.856;2022-07-21T09:19:00;100991.41;;;27.85
15544;BMP180;7873;52.230;12.856;2022-07-21T09:21:28;100988.69;;;27.85
15544;BMP180;7873;52.230;12.856;2022-07-21T09:37:11;100994.56;;;27.95
15544;BMP180;7873;52.230;12.856;2022-07-21T09:39:43;100995.19;;;27.97
15544;BMP180;7873;52.230;12.856;2022-07-21T09:42:14;100997.28;;;28.01
15544;BMP180;7873;52.230;12.856;2022-07-21T09:44:43;100996.44;;;28.01
15544;BMP180;7873;52.230;12.856;2022-07-21T09:47:10;101001.44;;;28.04
15544;BMP180;7873;52.230;12.856;2022-07-21T09:49:38;101005.19;;;28.03
15544;BMP180;7873;52.230;12.856;2022-07-21T09:52:25;101011.44;;;28.03
15544;BMP180;7873;52.230;12.856;2022-07-21T09:54:53;101011.63;;;28.02
15544;BMP180;7873;52.230;12.856;2022-07-21T09:57:21;101020.63;;;28.02
15544;BMP180;7873;52.230;12.856;2022-07-21T09:59:49;101027.47;;;28.05
15544;BMP180;7873;52.230;12.856;2022-07-21T10:02:18;101027.88;;;28.02
15544;BMP180;7873;52.230;12.856;2022-07-21T10:04:48;101024.34;;;28.01
15544;BMP180;7873;52.230;12.856;2022-07-21T10:07:19;101040.59;;;28.01
15544;BMP180;7873;52.230;12.856;2022-07-21T10:09:47;101043.94;;;28.03
15544;BMP180;7873;52.230;12.856;2022-07-21T10:12:15;101046.44;;;28.05
15544;BMP180;7873;52.230;12.856;2022-07-21T10:14:41;101056.22;;;28.06
15544;BMP180;7873;52.230;12.856;2022-07-21T10:17:08;101062.69;;;27.98
15544;BMP180;7873;52.230;12.856;2022-07-21T10:19:39;101063.69;;;27.91
15544;BMP180;7873;52.230;12.856;2022-07-21T10:22:16;101060.97;;;27.91
15544;BMP180;7873;52.230;12.856;2022-07-21T10:24:48;101051.41;;;27.95
15544;BMP180;7873;52.230;12.856;2022-07-21T10:27:15;101044.50;;;27.92
15544;BMP180;7873;52.230;12.856;2022-07-21T10:29:54;101049.72;;;27.94
15544;BMP180;7873;52.230;12.856;2022-07-21T10:32:23;101061.16;;;27.89
15544;BMP180;7873;52.230;12.856;2022-07-21T10:34:50;101069.50;;;27.94
15544;BMP180;7873;52.230;12.856;2022-07-21T10:37:47;101070.16;;;27.96
15544;BMP180;7873;52.230;12.856;2022-07-21T10:40:40;101074.09;;;27.94
15544;BMP180;7873;52.230;12.856;2022-07-21T10:43:36;101066.78;;;27.94
15544;BMP180;7873;52.230;12.856;2022-07-21T10:46:36;101053.47;;;27.93
15544;BMP180;7873;52.230;12.856;2022-07-21T10:49:05;101057.63;;;27.95
15544;BMP180;7873;52.230;12.856;2022-07-21T10:51:33;101052.44;;;27.94
15544;BMP180;7873;52.230;12.856;2022-07-21T10:54:22;101045.81;;;27.96
15544;BMP180;7873;52.230;12.856;2022-07-21T11:00:20;101064.34;;;27.99
15544;BMP180;7873;52.230;12.856;2022-07-21T11:02:49;101061.38;;;27.94
15544;BMP180;7873;52.230;12.856;2022-07-21T11:05:16;101055.78;;;27.96
15544;BMP180;7873;52.230;12.856;2022-07-21T11:08:10;101063.72;;;27.97
15544;BMP180;7873;52.230;12.856;2022-07-21T11:10:38;101065.16;;;28.00
15544;BMP180;7873;52.230;12.856;2022-07-21T11:13:05;101069.53;;;28.01
15544;BMP180;7873;52.230;12.856;2022-07-21T11:15:55;101064.34;;;27.99
15544;BMP180;7873;52.230;12.856;2022-07-21T11:18:23;101075.81;;;28.01
15544;BMP180;7873;52.230;12.856;2022-07-21T11:21:08;101088.09;;;28.04
15544;BMP180;7873;52.230;12.856;2022-07-21T11:23:37;101066.41;;;28.04
15544;BMP180;7873;52.230;12.856;2022-07-21T11:26:05;101054.56;;;28.05
15544;BMP180;7873;52.230;12.856;2022-07-21T11:28:32;101055.00;;;28.08
15544;BMP180;7873;52.230;12.856;2022-07-21T11:31:17;101053.78;;;28.11
15544;BMP180;7873;52.230;12.856;2022-07-21T11:33:46;101067.94;;;28.13
15544;BMP180;7873;52.230;12.856;2022-07-21T11:36:25;101070.66;;;28.13
15544;BMP180;7873;52.230;12.856;2022-07-21T11:39:05;101050.03;;;28.12
15544;BMP180;7873;52.230;12.856;2022-07-21T11:41:33;101042.31;;;28.15
15544;BMP180;7873;52.230;12.856;2022-07-21T11:44:00;101026.69;;;28.17
15544;BMP180;7873;52.230;12.856;2022-07-21T11:46:44;101029.84;;;28.21
15544;BMP180;7873;52.230;12.856;2022-07-21T11:49:11;101044.84;;;28.23
15544;BMP180;7873;52.230;12.856;2022-07-21T11:51:37;101030.28;;;28.24
15544;BMP180;7873;52.230;12.856;2022-07-21T11:54:04;101018.41;;;28.25
15544;BMP180;7873;52.230;12.856;2022-07-21T11:56:36;101038.16;;;28.26
15544;BMP180;7873;52.230;12.856;2022-07-21T11:59:09;101050.50;;;28.28
15544;BMP180;7873;52.230;12.856;2022-07-21T12:01:55;101073.19;;;28.27
15544;BMP180;7873;52.230;12.856;2022-07-21T12:04:30;101061.91;;;28.24
15544;BMP180;7873;52.230;12.856;2022-07-21T12:06:57;101045.66;;;28.24
15544;BMP180;7873;52.230;12.856;2022-07-21T12:09:24;101043.19;;;28.22
15544;BMP180;7873;52.230;12.856;2022-07-21T12:11:51;101029.63;;;28.22
15544;BMP180;7873;52.230;12.856;2022-07-21T12:14:18;101023.38;;;28.22
15544;BMP180;7873;52.230;12.856;2022-07-21T12:16:52;101010.06;;;28.20
15544;BMP180;7873;52.230;12.856;2022-07-21T12:19:19;101010.25;;;28.19
15544;BMP180;7873;52.230;12.856;2022-07-21T12:21:47;101006.50;;;28.20
15544;BMP180;7873;52.230;12.856;2022-07-21T12:24:15;101006.50;;;28.20
15544;BMP180;7873;52.230;12.856;2022-07-21T12:26:43;101001.94;;;28.20
15544;BMP180;7873;52.230;12.856;2022-07-21T12:29:10;101006.31;;;28.21
15544;BMP180;7873;52.230;12.856;2022-07-21T12:31:37;101017.97;;;28.22
15544;BMP180;7873;52.230;12.856;2022-07-21T12:34:13;101009.03;;;28.21
15544;BMP180;7873;52.230;12.856;2022-07-21T12:36:41;101019.44;;;28.24
15544;BMP180;7873;52.230;12.856;2022-07-21T12:39:16;101012.34;;;28.23
15544;BMP180;7873;52.230;12.856;2022-07-21T12:42:05;101017.78;;;28.23
15544;BMP180;7873;52.230;12.856;2022-07-21T12:44:32;101032.97;;;28.24
15544;BMP180;7873;52.230;12.856;2022-07-21T12:47:12;101024.41;;;28.21
15544;BMP180;7873;52.230;12.856;2022-07-21T12:49:57;101019.63;;;28.23
15544;BMP180;7873;52.230;12.856;2022-07-21T12:52:25;101015.69;;;28.25
15544;BMP180;7873;52.230;12.856;2022-07-21T12:54:52;101011.09;;;28.26
15544;BMP180;7873;52.230;12.856;2022-07-21T12:57:19;101009.22;;;28.26
15544;BMP180;7873;52.230;12.856;2022-07-21T12:59:46;101010.06;;;28.27
15544;BMP180;7873;52.230;12.856;2022-07-21T13:02:12;100996.13;;;28.30
15544;BMP180;7873;52.230;12.856;2022-07-21T13:04:39;100990.50;;;28.31
15544;BMP180;7873;52.230;12.856;2022-07-21T13:07:07;100991.56;;;28.30
15544;BMP180;7873;52.230;12.856;2022-07-21T13:09:34;100986.13;;;28.30
15544;BMP180;7873;52.230;12.856;2022-07-21T13:12:00;100982.34;;;28.25
15544;BMP180;7873;52.230;12.856;2022-07-21T13:14:27;100984.22;;;28.24
15544;BMP180;7873;52.230;12.856;2022-07-21T13:16:54;100989.66;;;28.31
15544;BMP180;7873;52.230;12.856;2022-07-21T13:19:22;100979.06;;;28.36
15544;BMP180;7873;52.230;12.856;2022-07-21T13:21:49;100976.38;;;28.36
15544;BMP180;7873;52.230;12.856;2022-07-21T13:24:18;100965.75;;;28.41
15544;BMP180;7873;52.230;12.856;2022-07-21T13:26:45;100962.19;;;28.47
15544;BMP180;7873;52.230;12.856;2022-07-21T13:29:12;100962.00;;;28.48
15544;BMP180;7873;52.230;12.856;2022-07-21T13:31:38;100962.19;;;28.53
15544;BMP180;7873;52.230;12.856;2022-07-21T13:34:06;100960.13;;;28.55
15544;BMP180;7873;52.230;12.856;2022-07-21T13:36:33;100946.56;;;28.55
15544;BMP180;7873;52.230;12.856;2022-07-21T13:39:00;100944.69;;;28.49
15544;BMP180;7873;52.230;12.856;2022-07-21T13:41:30;100942.19;;;28.48
15544;BMP180;7873;52.230;12.856;2022-07-21T13:43:57;100950.13;;;28.49
15544;BMP180;7873;52.230;12.856;2022-07-21T13:46:24;100930.91;;;28.51
15544;BMP180;7873;52.230;12.856;2022-07-21T13:48:51;100929.69;;;28.53
15544;BMP180;7873;52.230;12.856;2022-07-21T13:51:19;100936.16;;;28.52
15544;BMP180;7873;52.230;12.856;2022-07-21T13:53:47;100933.44;;;28.52
15544;BMP180;7873;52.230;12.856;2022-07-21T13:56:15;100931.16;;;28.56
15544;BMP180;7873;52.230;12.856;2022-07-21T13:58:44;100933.63;;;28.51
15544;BMP180;7873;52.230;12.856;2022-07-21T14:01:11;100952.81;;;28.49
15544;BMP180;7873;52.230;12.856;2022-07-21T14:03:39;100949.88;;;28.51
15544;BMP180;7873;52.230;12.856;2022-07-21T14:06:06;100956.59;;;28.55
15544;BMP180;7873;52.230;12.856;2022-07-21T14:08:33;100946.38;;;28.57
15544;BMP180;7873;52.230;12.856;2022-07-21T14:10:59;100945.53;;;28.63
15544;BMP180;7873;52.230;12.856;2022-07-21T14:13:26;100949.91;;;28.64
15544;BMP180;7873;52.230;12.856;2022-07-21T14:15:54;100951.56;;;28.65
15544;BMP180;7873;52.230;12.856;2022-07-21T14:18:21;100957.63;;;28.67
15544;BMP180;7873;52.230;12.856;2022-07-21T14:20:48;100963.03;;;28.67